sensor_id;sensor_type;location;lat;lon;timestamp;pressure;altitude;pressure_sealevel;temperature;humidity
10606;BME280;5350;42.698;23.148;2022-09-27T00:01:15;92716.84;;;16.05;100.00
10606;BME280;5350;42.698;23.148;2022-09-27T00:03:42;92743.28;;;16.02;100.00
10606;BME280;5350;42.698;23.148;2022-09-27T00:06:11;92744.50;;;16.04;100.00
10606;BME280;5350;42.698;23.148;2022-09-27T00:08:38;92738.31;;;16.00;100.00
10606;BME280;5350;42.698;23.148;2022-09-27T00:11:05;92758.44;;;16.01;100.00
10606;BME280;5350;42.698;23.148;2022-09-27T00:13:32;92758.78;;;15.99;100.00
10606;BME280;5350;42.698;23.148;2022-09-27T00:16:01;92765.09;;;15.95;100.00
10606;BME280;5350;42.698;23.148;2022-09-27T00:18:29;92780.59;;;15.93;100.00
10606;BME280;5350;42.698;23.148;2022-09-27T00:21:02;92774.09;;;15.90;100.00
10606;BME280;5350;42.698;23.148;2022-09-27T00:23:29;92778.03;;;15.81;100.00
10606;BME280;5350;42.698;23.148;2022-09-27T00:25:55;92771.88;;;15.77;100.00
10606;BME280;5350;42.698;23.148;2022-09-27T00:28:22;92770.06;;;15.81;100.00
10606;BME280;5350;42.698;23.148;2022-09-27T00:43:02;92727.13;;;15.75;100.00
10606;BME280;5350;42.698;23.148;2022-09-27T00:45:28;92712.75;;;15.76;100.00
10606;BME280;5350;42.698;23.148;2022-09-27T00:47:55;92681.28;;;15.75;100.00
10606;BME280;5350;42.698;23.148;2022-09-27T00:50:25;92685.91;;;15.78;100.00
10606;BME280;5350;42.698;23.148;2022-09-27T00:52:55;92696.50;;;15.78;100.00
10606;BME280;5350;42.698;23.148;2022-09-27T00:55:26;92691.91;;;15.75;100.00
10606;BME280;5350;42.698;23.148;2022-09-27T00:57:54;92686.91;;;15.73;100.00
10606;BME280;5350;42.698;23.148;2022-09-27T01:00:22;92691.13;;;15.74;100.00
10606;BME280;5350;42.698;23.148;2022-09-27T01:02:50;92687.28;;;15.72;100.00
10606;BME280;5350;42.698;23.148;2022-09-27T01:05:19;92671.72;;;15.70;100.00
10606;BME280;5350;42.698;23.148;2022-09-27T01:07:47;92680.41;;;15.71;100.00
10606;BME280;5350;42.698;23.148;2022-09-27T01:10:13;92670.59;;;15.71;100.00
10606;BME280;5350;42.698;23.148;2022-09-27T01:12:44;92683.84;;;15.71;100.00
10606;BME280;5350;42.698;23.148;2022-09-27T01:15:17;92687.19;;;15.68;100.00
10606;BME280;5350;42.698;23.148;2022-09-27T01:17:49;92688.13;;;15.76;100.00
10606;BME280;5350;42.698;23.148;2022-09-27T01:23:03;92691.38;;;15.85;100.00
10606;BME280;5350;42.698;23.148;2022-09-27T01:25:41;92687.88;;;15.81;100.00
10606;BME280;5350;42.698;23.148;2022-09-27T01:28:13;92676.41;;;15.77;100.00
10606;BME280;5350;42.698;23.148;2022-09-27T01:30:46;92685.97;;;15.81;100.00
10606;BME280;5350;42.698;23.148;2022-09-27T01:33:21;92675.72;;;15.80;100.00
10606;BME280;5350;42.698;23.148;2022-09-27T01:35:59;92682.16;;;15.79;100.00
10606;BME280;5350;42.698;23.148;2022-09-27T01:38:29;92692.75;;;15.79;100.00
10606;BME280;5350;42.698;23.148;2022-09-27T01:40:58;92689.56;;;15.73;100.00
10606;BME280;5350;42.698;23.148;2022-09-27T01:43:28;92678.19;;;15.73;100.00
10606;BME280;5350;42.698;23.148;2022-09-27T01:45:58;92681.19;;;15.71;100.00
10606;BME280;5350;42.698;23.148;2022-09-27T01:48:27;92683.06;;;15.71;100.00
10606;BME280;5350;42.698;23.148;2022-09-27T01:50:56;92670.16;;;15.69;100.00
10606;BME280;5350;42.698;23.148;2022-09-27T01:53:24;92681.19;;;15.71;100.00
10606;BME280;5350;42.698;23.148;2022-09-27T01:55:52;92666.72;;;15.69;100.00
10606;BME280;5350;42.698;23.148;2022-09-27T01:58:21;92674.00;;;15.72;100.00
10606;BME280;5350;42.698;23.148;2022-09-27T02:00:50;92676.66;;;15.72;100.00
10606;BME280;5350;42.698;23.148;2022-09-27T02:03:19;92662.56;;;15.68;100.00
10606;BME280;5350;42.698;23.148;2022-09-27T02:05:49;92664.50;;;15.71;100.00
10606;BME280;5350;42.698;23.148;2022-09-27T02:08:18;92656.97;;;15.73;100.00
10606;BME280;5350;42.698;23.148;2022-09-27T02:10:46;92650.81;;;15.69;100.00
10606;BME280;5350;42.698;23.148;2022-09-27T02:13:16;92652.38;;;15.70;100.00
10606;BME280;5350;42.698;23.148;2022-09-27T02:15:47;92634.94;;;15.69;100.00
10606;BME280;5350;42.698;23.148;2022-09-27T02:18:17;92635.69;;;15.69;100.00
10606;BME280;5350;42.698;23.148;2022-09-27T02:20:49;92615.19;;;15.66;100.00
10606;BME280;5350;42.698;23.148;2022-09-27T02:23:20;92603.91;;;15.69;100.00
10606;BME280;5350;42.698;23.148;2022-09-27T02:25:49;92600.56;;;15.72;100.00
10606;BME280;5350;42.698;23.148;2022-09-27T02:28:20;92599.78;;;15.72;100.00
10606;BME280;5350;42.698;23.148;2022-09-27T02:30:48;92598.22;;;15.71;100.00
10606;BME280;5350;42.698;23.148;2022-09-27T02:33:14;92607.75;;;15.72;100.00
10606;BME280;5350;42.698;23.148;2022-09-27T02:35:41;92611.66;;;15.78;100.00
10606;BME280;5350;42.698;23.148;2022-09-27T02:38:09;92609.25;;;15.73;100.00
10606;BME280;5350;42.698;23.148;2022-09-27T02:40:41;92621.66;;;15.69;100.00
10606;BME280;5350;42.698;23.148;2022-09-27T02:43:08;92631.34;;;15.77;100.00
10606;BME280;5350;42.698;23.148;2022-09-27T02:45:36;92630.22;;;15.78;100.00
10606;BME280;5350;42.698;23.148;2022-09-27T02:48:10;92627.75;;;15.85;100.00
10606;BME280;5350;42.698;23.148;2022-09-27T02:50:49;92639.53;;;15.87;100.00
10606;BME280;5350;42.698;23.148;2022-09-27T02:53:24;92645.94;;;15.86;100.00
10606;BME280;5350;42.698;23.148;2022-09-27T02:55:56;92651.31;;;15.90;100.00
10606;BME280;5350;42.698;23.148;2022-09-27T02:58:29;92653.22;;;15.89;100.00
10606;BME280;5350;42.698;23.148;2022-09-27T03:01:01;92641.66;;;15.97;100.00
10606;BME280;5350;42.698;23.148;2022-09-27T03:03:33;92636.84;;;16.03;100.00
10606;BME280;5350;42.698;23.148;2022-09-27T03:06:01;92631.19;;;16.05;100.00
10606;BME280;5350;42.698;23.148;2022-09-27T03:08:30;92625.81;;;16.01;100.00
10606;BME280;5350;42.698;23.148;2022-09-27T03:10:57;92615.75;;;15.91;100.00
10606;BME280;5350;42.698;23.148;2022-09-27T03:13:23;92615.44;;;15.77;100.00
10606;BME280;5350;42.698;23.148;2022-09-27T03:15:50;92636.91;;;15.56;100.00
10606;BME280;5350;42.698;23.148;2022-09-27T03:18:17;92608.63;;;15.45;100.00
10606;BME280;5350;42.698;23.148;2022-09-27T03:20:44;92603.66;;;15.43;100.00
10606;BME280;5350;42.698;23.148;2022-09-27T03:23:10;92607.00;;;15.56;100.00
10606;BME280;5350;42.698;23.148;2022-09-27T03:25:39;92605.44;;;15.70;100.00
10606;BME280;5350;42.698;23.148;2022-09-27T03:28:05;92611.25;;;15.76;100.00
10606;BME280;5350;42.698;23.148;2022-09-27T03:30:33;92612.97;;;15.53;100.00
10606;BME280;5350;42.698;23.148;2022-09-27T03:33:00;92609.09;;;15.35;100.00
10606;BME280;5350;42.698;23.148;2022-09-27T03:35:26;92620.88;;;15.21;100.00
10606;BME280;5350;42.698;23.148;2022-09-27T03:37:53;92613.28;;;15.20;100.00
10606;BME280;5350;42.698;23.148;2022-09-27T03:40:19;92602.16;;;15.14;100.00
10606;BME280;5350;42.698;23.148;2022-09-27T03:42:47;92603.97;;;15.26;100.00
10606;BME280;5350;42.698;23.148;2022-09-27T03:45:14;92608.75;;;15.20;100.00
10606;BME280;5350;42.698;23.148;2022-09-27T03:47:41;92611.00;;;15.18;100.00
10606;BME280;5350;42.698;23.148;2022-09-27T03:50:08;92605.59;;;15.15;100.00
10606;BME280;5350;42.698;23.148;2022-09-27T03:52:35;92604.28;;;14.93;100.00
10606;BME280;5350;42.698;23.148;2022-09-27T03:55:02;92621.06;;;14.85;100.00
10606;BME280;5350;42.698;23.148;2022-09-27T03:57:28;92617.78;;;14.88;100.00
10606;BME280;5350;42.698;23.148;2022-09-27T03:59:57;92612.84;;;15.02;100.00
10606;BME280;5350;42.698;23.148;2022-09-27T04:02:24;92620.19;;;14.93;100.00
10606;BME280;5350;42.698;23.148;2022-09-27T04:04:51;92619.75;;;14.91;100.00
10606;BME280;5350;42.698;23.148;2022-09-27T04:07:17;92614.59;;;14.83;100.00
10606;BME280;5350;42.698;23.148;2022-09-27T04:09:44;92591.16;;;14.69;100.00
10606;BME280;5350;42.698;23.148;2022-09-27T04:12:11;92591.44;;;14.80;100.00
10606;BME280;5350;42.698;23.148;2022-09-27T04:14:37;92601.03;;;14.84;100.00
10606;BME280;5350;42.698;23.148;2022-09-27T04:17:05;92593.88;;;15.00;100.00
10606;BME280;5350;42.698;23.148;2022-09-27T04:19:32;92589.34;;;15.01;100.00
10606;BME280;5350;42.698;23.148;2022-09-27T04:21:58;92595.75;;;15.00;100.00
10606;BME280;5350;42.698;23.148;2022-09-27T04:24:25;92599.91;;;14.85;100.00
10606;BME280;5350;42.698;23.148;2022-09-27T04:26:51;92600.44;;;14.91;100.00
10606;BME280;5350;42.698;23.148;2022-09-27T04:29:18;92613.13;;;14.85;100.00
10606;BME280;5350;42.698;23.148;2022-09-27T04:31:44;92610.91;;;14.87;100.00
10606;BME280;5350;42.698;23.148;2022-09-27T04:34:13;92605.88;;;14.82;100.00
10606;BME280;5350;42.698;23.148;2022-09-27T04:36:39;92604.59;;;14.76;100.00
10606;BME280;5350;42.698;23.148;2022-09-27T04:39:05;92610.13;;;14.71;100.00
10606;BME280;5350;42.698;23.148;2022-09-27T04:41:32;92609.31;;;14.83;100.00
10606;BME280;5350;42.698;23.148;2022-09-27T04:43:59;92607.25;;;14.92;100.00
10606;BME280;5350;42.698;23.148;2022-09-27T04:46:26;92600.22;;;15.11;100.00
10606;BME280;5350;42.698;23.148;2022-09-27T04:48:55;92602.94;;;15.15;100.00
10606;BME280;5350;42.698;23.148;2022-09-27T04:51:23;92606.28;;;15.28;100.00
10606;BME280;5350;42.698;23.148;2022-09-27T04:53:51;92600.00;;;15.48;100.00
10606;BME280;5350;42.698;23.148;2022-09-27T04:56:17;92584.53;;;15.50;100.00
10606;BME280;5350;42.698;23.148;2022-09-27T04:58:44;92587.50;;;15.48;100.00
10606;BME280;5350;42.698;23.148;2022-09-27T05:01:10;92591.63;;;15.46;100.00
10606;BME280;5350;42.698;23.148;2022-09-27T05:03:37;92586.03;;;15.51;100.00
10606;BME280;5350;42.698;23.148;2022-09-27T05:06:04;92579.22;;;15.50;100.00
10606;BME280;5350;42.698;23.148;2022-09-27T05:08:31;92588.53;;;15.59;100.00
10606;BME280;5350;42.698;23.148;2022-09-27T05:10:58;92569.03;;;15.52;100.00
10606;BME280;5350;42.698;23.148;2022-09-27T05:13:25;92556.91;;;15.51;100.00
10606;BME280;5350;42.698;23.148;2022-09-27T05:15:52;92553.03;;;15.48;100.00
10606;BME280;5350;42.698;23.148;2022-09-27T05:18:18;92552.97;;;15.45;100.00
10606;BME280;5350;42.698;23.148;2022-09-27T05:20:45;92550.50;;;15.52;100.00
10606;BME280;5350;42.698;23.148;2022-09-27T05:23:11;92541.84;;;15.55;100.00
10606;BME280;5350;42.698;23.148;2022-09-27T05:25:39;92533.81;;;15.51;100.00
10606;BME280;5350;42.698;23.148;2022-09-27T05:28:06;92540.47;;;15.61;100.00
10606;BME280;5350;42.698;23.148;2022-09-27T05:30:33;92523.03;;;15.60;100.00
10606;BME280;5350;42.698;23.148;2022-09-27T05:33:00;92514.97;;;15.56;100.00
10606;BME280;5350;42.698;23.148;2022-09-27T05:35:26;92523.34;;;15.58;100.00
10606;BME280;5350;42.698;23.148;2022-09-27T05:37:53;92540.88;;;15.63;100.00
10606;BME280;5350;42.698;23.148;2022-09-27T05:40:20;92548.56;;;15.68;100.00
10606;BME280;5350;42.698;23.148;2022-09-27T05:42:50;92549.41;;;15.72;100.00
10606;BME280;5350;42.698;23.148;2022-09-27T05:45:16;92523.25;;;15.70;100.00
10606;BME280;5350;42.698;23.148;2022-09-27T05:47:43;92529.75;;;15.73;100.00
10606;BME280;5350;42.698;23.148;2022-09-27T05:50:17;92529.06;;;15.76;100.00
10606;BME280;5350;42.698;23.148;2022-09-27T05:52:43;92535.03;;;15.73;100.00
10606;BME280;5350;42.698;23.148;2022-09-27T05:55:10;92538.88;;;15.75;100.00
10606;BME280;5350;42.698;23.148;2022-09-27T05:57:36;92533.94;;;15.74;100.00
10606;BME280;5350;42.698;23.148;2022-09-27T06:00:07;92540.78;;;15.75;100.00
10606;BME280;5350;42.698;23.148;2022-09-27T06:02:34;92548.03;;;15.78;100.00
10606;BME280;5350;42.698;23.148;2022-09-27T06:05:01;92544.78;;;15.69;100.00
10606;BME280;5350;42.698;23.148;2022-09-27T06:07:29;92541.13;;;15.73;100.00
10606;BME280;5350;42.698;23.148;2022-09-27T06:09:56;92532.75;;;15.71;100.00
10606;BME280;5350;42.698;23.148;2022-09-27T06:12:22;92544.53;;;15.74;100.00
10606;BME280;5350;42.698;23.148;2022-09-27T06:14:49;92547.88;;;15.71;100.00
10606;BME280;5350;42.698;23.148;2022-09-27T06:17:16;92556.09;;;15.66;100.00
10606;BME280;5350;42.698;23.148;2022-09-27T06:19:43;92560.38;;;15.70;100.00
10606;BME280;5350;42.698;23.148;2022-09-27T06:22:11;92552.91;;;15.76;100.00
10606;BME280;5350;42.698;23.148;2022-09-27T06:24:38;92560.31;;;15.86;100.00
10606;BME280;5350;42.698;23.148;2022-09-27T06:27:04;92570.09;;;15.82;100.00
10606;BME280;5350;42.698;23.148;2022-09-27T06:29:32;92555.72;;;15.83;100.00
10606;BME280;5350;42.698;23.148;2022-09-27T06:31:59;92556.91;;;15.85;100.00
10606;BME280;5350;42.698;23.148;2022-09-27T06:34:27;92574.72;;;15.85;100.00
10606;BME280;5350;42.698;23.148;2022-09-27T06:36:53;92557.25;;;15.84;100.00
10606;BME280;5350;42.698;23.148;2022-09-27T06:39:21;92557.97;;;15.81;100.00
10606;BME280;5350;42.698;23.148;2022-09-27T06:41:47;92545.03;;;15.79;100.00
10606;BME280;5350;42.698;23.148;2022-09-27T06:44:14;92533.09;;;15.70;100.00
10606;BME280;5350;42.698;23.148;2022-09-27T06:46:41;92514.13;;;15.68;100.00
10606;BME280;5350;42.698;23.148;2022-09-27T06:49:07;92506.09;;;15.64;100.00
10606;BME280;5350;42.698;23.148;2022-09-27T06:51:35;92512.84;;;15.62;100.00
10606;BME280;5350;42.698;23.148;2022-09-27T06:54:02;92541.72;;;15.67;100.00
10606;BME280;5350;42.698;23.148;2022-09-27T06:56:28;92541.03;;;15.70;100.00
10606;BME280;5350;42.698;23.148;2022-09-27T06:58:55;92536.00;;;15.65;100.00
10606;BME280;5350;42.698;23.148;2022-09-27T07:01:39;92527.53;;;15.75;100.00
10606;BME280;5350;42.698;23.148;2022-09-27T07:04:05;92535.56;;;15.78;100.00
10606;BME280;5350;42.698;23.148;2022-09-27T07:06:33;92547.19;;;15.74;100.00
10606;BME280;5350;42.698;23.148;2022-09-27T07:09:03;92570.78;;;15.79;100.00
10606;BME280;5350;42.698;23.148;2022-09-27T07:11:30;92581.13;;;15.84;100.00
10606;BME280;5350;42.698;23.148;2022-09-27T07:14:00;92605.94;;;15.91;100.00
10606;BME280;5350;42.698;23.148;2022-09-27T07:16:28;92598.53;;;16.00;100.00
10606;BME280;5350;42.698;23.148;2022-09-27T07:18:55;92616.91;;;16.09;100.00
10606;BME280;5350;42.698;23.148;2022-09-27T07:21:22;92609.38;;;16.11;100.00
10606;BME280;5350;42.698;23.148;2022-09-27T07:23:48;92619.84;;;16.04;100.00
10606;BME280;5350;42.698;23.148;2022-09-27T07:26:16;92620.94;;;16.03;100.00
10606;BME280;5350;42.698;23.148;2022-09-27T07:28:43;92610.13;;;16.12;100.00
10606;BME280;5350;42.698;23.148;2022-09-27T07:31:10;92619.66;;;16.32;100.00
10606;BME280;5350;42.698;23.148;2022-09-27T07:33:37;92615.34;;;16.43;100.00
10606;BME280;5350;42.698;23.148;2022-09-27T07:36:07;92620.13;;;16.53;100.00
10606;BME280;5350;42.698;23.148;2022-09-27T07:38:34;92606.69;;;16.65;100.00
10606;BME280;5350;42.698;23.148;2022-09-27T07:41:04;92591.28;;;16.70;100.00
10606;BME280;5350;42.698;23.148;2022-09-27T07:43:32;92590.44;;;16.66;100.00
10606;BME280;5350;42.698;23.148;2022-09-27T07:45:58;92584.34;;;16.66;100.00
10606;BME280;5350;42.698;23.148;2022-09-27T07:48:25;92578.13;;;16.58;100.00
10606;BME280;5350;42.698;23.148;2022-09-27T07:50:52;92553.81;;;16.37;100.00
10606;BME280;5350;42.698;23.148;2022-09-27T07:53:18;92578.53;;;16.22;100.00
10606;BME280;5350;42.698;23.148;2022-09-27T07:55:48;92582.72;;;16.04;100.00
10606;BME280;5350;42.698;23.148;2022-09-27T07:58:15;92578.88;;;15.86;100.00
10606;BME280;5350;42.698;23.148;2022-09-27T08:00:42;92588.75;;;15.70;100.00
10606;BME280;5350;42.698;23.148;2022-09-27T08:03:09;92600.16;;;15.55;100.00
10606;BME280;5350;42.698;23.148;2022-09-27T08:05:38;92594.50;;;15.56;100.00
10606;BME280;5350;42.698;23.148;2022-09-27T08:08:04;92594.16;;;15.58;100.00
10606;BME280;5350;42.698;23.148;2022-09-27T08:10:31;92583.28;;;15.63;100.00
10606;BME280;5350;42.698;23.148;2022-09-27T08:12:59;92583.88;;;15.72;100.00
10606;BME280;5350;42.698;23.148;2022-09-27T08:15:27;92581.72;;;15.77;100.00
10606;BME280;5350;42.698;23.148;2022-09-27T08:17:55;92581.41;;;15.79;100.00
10606;BME280;5350;42.698;23.148;2022-09-27T08:20:21;92569.91;;;15.90;100.00
10606;BME280;5350;42.698;23.148;2022-09-27T08:22:48;92565.66;;;16.05;100.00
10606;BME280;5350;42.698;23.148;2022-09-27T08:25:14;92554.25;;;16.20;100.00
10606;BME280;5350;42.698;23.148;2022-09-27T08:27:41;92549.63;;;16.36;100.00
10606;BME280;5350;42.698;23.148;2022-09-27T08:30:08;92544.88;;;16.45;100.00
10606;BME280;5350;42.698;23.148;2022-09-27T08:32:35;92534.69;;;16.66;100.00
10606;BME280;5350;42.698;23.148;2022-09-27T08:35:04;92526.44;;;16.94;100.00
10606;BME280;5350;42.698;23.148;2022-09-27T08:37:31;92536.31;;;17.16;100.00
10606;BME280;5350;42.698;23.148;2022-09-27T08:39:57;92546.81;;;17.54;100.00
10606;BME280;5350;42.698;23.148;2022-09-27T08:42:26;92546.81;;;17.81;100.00
10606;BME280;5350;42.698;23.148;2022-09-27T08:44:58;92540.25;;;18.01;100.00
10606;BME280;5350;42.698;23.148;2022-09-27T08:47:28;92549.59;;;18.17;100.00
10606;BME280;5350;42.698;23.148;2022-09-27T08:49:57;92548.53;;;18.25;100.00
10606;BME280;5350;42.698;23.148;2022-09-27T08:52:28;92538.94;;;18.44;100.00
10606;BME280;5350;42.698;23.148;2022-09-27T08:54:57;92537.34;;;18.43;100.00
10606;BME280;5350;42.698;23.148;2022-09-27T08:57:26;92525.09;;;18.68;100.00
10606;BME280;5350;42.698;23.148;2022-09-27T08:59:54;92545.31;;;18.69;100.00
10606;BME280;5350;42.698;23.148;2022-09-27T09:02:26;92552.22;;;18.77;100.00
10606;BME280;5350;42.698;23.148;2022-09-27T09:04:53;92561.41;;;18.79;100.00
10606;BME280;5350;42.698;23.148;2022-09-27T09:07:36;92558.25;;;18.70;100.00
10606;BME280;5350;42.698;23.148;2022-09-27T09:10:11;92570.22;;;18.54;100.00
10606;BME280;5350;42.698;23.148;2022-09-27T09:13:05;92566.16;;;18.63;100.00
10606;BME280;5350;42.698;23.148;2022-09-27T09:15:37;92567.78;;;18.42;100.00
10606;BME280;5350;42.698;23.148;2022-09-27T09:18:22;92561.56;;;18.60;100.00
10606;BME280;5350;42.698;23.148;2022-09-27T09:20:54;92550.16;;;18.63;100.00
10606;BME280;5350;42.698;23.148;2022-09-27T09:23:29;92544.69;;;18.86;100.00
10606;BME280;5350;42.698;23.148;2022-09-27T09:26:02;92540.66;;;19.02;100.00
10606;BME280;5350;42.698;23.148;2022-09-27T09:28:34;92538.50;;;19.15;100.00
10606;BME280;5350;42.698;23.148;2022-09-27T09:31:05;92536.66;;;19.19;100.00
10606;BME280;5350;42.698;23.148;2022-09-27T09:33:33;92542.19;;;19.40;100.00
10606;BME280;5350;42.698;23.148;2022-09-27T09:36:02;92542.44;;;19.72;100.00
10606;BME280;5350;42.698;23.148;2022-09-27T09:38:34;92548.69;;;20.01;100.00
10606;BME280;5350;42.698;23.148;2022-09-27T09:41:04;92551.41;;;20.08;100.00
10606;BME280;5350;42.698;23.148;2022-09-27T09:43:32;92549.06;;;19.96;100.00
10606;BME280;5350;42.698;23.148;2022-09-27T09:46:01;92562.31;;;19.81;100.00
10606;BME280;5350;42.698;23.148;2022-09-27T09:48:29;92555.34;;;19.66;100.00
10606;BME280;5350;42.698;23.148;2022-09-27T09:50:58;92551.19;;;19.72;100.00
10606;BME280;5350;42.698;23.148;2022-09-27T09:53:27;92546.94;;;19.61;100.00
10606;BME280;5350;42.698;23.148;2022-09-27T09:56:01;92555.03;;;19.75;100.00
10606;BME280;5350;42.698;23.148;2022-09-27T09:58:29;92556.09;;;19.63;100.00
10606;BME280;5350;42.698;23.148;2022-09-27T10:00:59;92542.81;;;19.70;100.00
10606;BME280;5350;42.698;23.148;2022-09-27T10:03:26;92542.47;;;19.75;100.00
10606;BME280;5350;42.698;23.148;2022-09-27T10:05:52;92543.66;;;19.81;100.00
10606;BME280;5350;42.698;23.148;2022-09-27T10:08:20;92551.91;;;19.66;100.00
10606;BME280;5350;42.698;23.148;2022-09-27T10:10:46;92541.94;;;19.59;100.00
10606;BME280;5350;42.698;23.148;2022-09-27T10:13:15;92539.69;;;19.61;100.00
10606;BME280;5350;42.698;23.148;2022-09-27T10:15:42;92526.47;;;19.75;100.00
10606;BME280;5350;42.698;23.148;2022-09-27T10:18:11;92523.31;;;19.63;100.00
10606;BME280;5350;42.698;23.148;2022-09-27T10:20:42;92522.22;;;19.71;100.00
10606;BME280;5350;42.698;23.148;2022-09-27T10:23:10;92515.78;;;19.75;100.00
10606;BME280;5350;42.698;23.148;2022-09-27T10:25:44;92513.13;;;19.79;100.00
10606;BME280;5350;42.698;23.148;2022-09-27T10:28:26;92493.28;;;19.73;100.00
10606;BME280;5350;42.698;23.148;2022-09-27T10:30:57;92504.34;;;19.78;100.00
10606;BME280;5350;42.698;23.148;2022-09-27T10:33:24;92508.19;;;19.77;100.00
10606;BME280;5350;42.698;23.148;2022-09-27T10:35:52;92508.13;;;19.70;100.00
10606;BME280;5350;42.698;23.148;2022-09-27T10:38:23;92502.47;;;19.79;100.00
10606;BME280;5350;42.698;23.148;2022-09-27T10:40:51;92498.38;;;19.96;100.00
10606;BME280;5350;42.698;23.148;2022-09-27T10:43:26;92490.47;;;20.17;100.00
10606;BME280;5350;42.698;23.148;2022-09-27T10:48:34;92502.91;;;20.78;100.00
10606;BME280;5350;42.698;23.148;2022-09-27T10:51:02;92501.03;;;20.96;100.00
10606;BME280;5350;42.698;23.148;2022-09-27T10:53:30;92500.69;;;21.18;100.00
10606;BME280;5350;42.698;23.148;2022-09-27T10:55:57;92500.31;;;21.41;100.00
10606;BME280;5350;42.698;23.148;2022-09-27T10:58:26;92497.66;;;21.59;100.00
10606;BME280;5350;42.698;23.148;2022-09-27T11:00:54;92498.03;;;21.71;100.00
10606;BME280;5350;42.698;23.148;2022-09-27T11:03:22;92487.34;;;21.82;100.00
10606;BME280;5350;42.698;23.148;2022-09-27T11:05:49;92493.81;;;21.88;100.00
10606;BME280;5350;42.698;23.148;2022-09-27T11:08:23;92493.41;;;21.79;100.00
10606;BME280;5350;42.698;23.148;2022-09-27T11:11:11;92494.97;;;21.44;100.00
10606;BME280;5350;42.698;23.148;2022-09-27T11:13:43;92499.16;;;21.28;100.00
10606;BME280;5350;42.698;23.148;2022-09-27T11:16:25;92480.84;;;21.26;100.00
10606;BME280;5350;42.698;23.148;2022-09-27T11:19:00;92475.09;;;21.17;100.00
10606;BME280;5350;42.698;23.148;2022-09-27T11:21:33;92456.78;;;21.26;100.00
10606;BME280;5350;42.698;23.148;2022-09-27T11:24:16;92468.59;;;21.57;100.00
10606;BME280;5350;42.698;23.148;2022-09-27T11:26:49;92488.06;;;21.79;100.00
10606;BME280;5350;42.698;23.148;2022-09-27T11:29:26;92465.53;;;21.80;100.00
10606;BME280;5350;42.698;23.148;2022-09-27T11:32:07;92463.91;;;22.21;100.00
10606;BME280;5350;42.698;23.148;2022-09-27T11:34:52;92461.81;;;22.53;100.00
10606;BME280;5350;42.698;23.148;2022-09-27T11:37:26;92447.28;;;22.54;100.00
10606;BME280;5350;42.698;23.148;2022-09-27T11:40:00;92439.53;;;22.74;100.00
10606;BME280;5350;42.698;23.148;2022-09-27T11:42:35;92446.03;;;22.76;100.00
10606;BME280;5350;42.698;23.148;2022-09-27T11:45:15;92433.09;;;23.19;100.00
10606;BME280;5350;42.698;23.148;2022-09-27T11:47:44;92437.66;;;23.22;92.15
10606;BME280;5350;42.698;23.148;2022-09-27T11:50:19;92440.75;;;23.21;94.07
10606;BME280;5350;42.698;23.148;2022-09-27T11:52:54;92432.97;;;23.37;92.19
10606;BME280;5350;42.698;23.148;2022-09-27T11:55:28;92432.22;;;23.77;91.12
10606;BME280;5350;42.698;23.148;2022-09-27T11:57:58;92426.53;;;23.71;88.32
10606;BME280;5350;42.698;23.148;2022-09-27T12:00:33;92413.91;;;24.06;86.18
10606;BME280;5350;42.698;23.148;2022-09-27T12:06:00;92413.25;;;23.95;85.43
10606;BME280;5350;42.698;23.148;2022-09-27T12:08:33;92421.69;;;23.93;87.22
10606;BME280;5350;42.698;23.148;2022-09-27T12:11:04;92409.09;;;24.24;83.74
10606;BME280;5350;42.698;23.148;2022-09-27T12:13:37;92405.69;;;24.50;83.56
10606;BME280;5350;42.698;23.148;2022-09-27T12:16:06;92391.94;;;24.44;80.71
10606;BME280;5350;42.698;23.148;2022-09-27T12:18:35;92373.09;;;24.48;79.21
10606;BME280;5350;42.698;23.148;2022-09-27T12:21:04;92377.13;;;24.33;79.22
10606;BME280;5350;42.698;23.148;2022-09-27T12:23:33;92366.78;;;24.31;80.93
10606;BME280;5350;42.698;23.148;2022-09-27T12:26:03;92352.38;;;24.75;79.99
10606;BME280;5350;42.698;23.148;2022-09-27T12:28:33;92380.91;;;24.66;76.98
10606;BME280;5350;42.698;23.148;2022-09-27T12:31:03;92350.84;;;24.74;75.78
10606;BME280;5350;42.698;23.148;2022-09-27T12:33:35;92351.53;;;24.51;75.83
10606;BME280;5350;42.698;23.148;2022-09-27T12:36:05;92354.03;;;24.66;73.74
10606;BME280;5350;42.698;23.148;2022-09-27T12:38:36;92352.56;;;24.61;78.31
10606;BME280;5350;42.698;23.148;2022-09-27T12:41:04;92363.91;;;24.45;83.12
10606;BME280;5350;42.698;23.148;2022-09-27T12:43:32;92335.00;;;24.53;79.94
10606;BME280;5350;42.698;23.148;2022-09-27T12:46:02;92326.75;;;24.40;80.39
10606;BME280;5350;42.698;23.148;2022-09-27T12:48:33;92326.75;;;24.40;82.47
10606;BME280;5350;42.698;23.148;2022-09-27T12:51:04;92309.28;;;24.52;81.12
10606;BME280;5350;42.698;23.148;2022-09-27T12:53:36;92302.56;;;24.40;80.66
10606;BME280;5350;42.698;23.148;2022-09-27T12:56:08;92308.28;;;24.42;81.75
10606;BME280;5350;42.698;23.148;2022-09-27T12:58:47;92297.63;;;24.35;80.71
10606;BME280;5350;42.698;23.148;2022-09-27T13:01:19;92319.47;;;24.64;80.16
10606;BME280;5350;42.698;23.148;2022-09-27T13:03:54;92322.91;;;24.91;80.13
10606;BME280;5350;42.698;23.148;2022-09-27T13:06:29;92340.03;;;24.78;78.69
10606;BME280;5350;42.698;23.148;2022-09-27T13:09:11;92336.53;;;25.04;79.58
10606;BME280;5350;42.698;23.148;2022-09-27T13:11:45;92335.38;;;24.82;75.07
10606;BME280;5350;42.698;23.148;2022-09-27T13:14:16;92349.88;;;24.88;72.10
10606;BME280;5350;42.698;23.148;2022-09-27T13:16:43;92328.00;;;25.09;71.84
10606;BME280;5350;42.698;23.148;2022-09-27T13:19:35;92344.53;;;25.30;73.41
10606;BME280;5350;42.698;23.148;2022-09-27T13:22:03;92337.19;;;25.34;76.24